<<    Februar 2014    >>
Datum    Temp.       Tempmin      Tempmax    Taup.       Taup.min      Taup.max    Feuchte    Feuchtemin    Feuchtemax    Druck    Druckmin    Druckmax    Regen    Wind    Benmax  
  01.02.2014  5,9    3,9    00:00    7,1    08:45  2,0    -0,7    00:00    4,5    12:55  77,1    62    08:38    89    12:43  1002,2    997    07:19    1008    22:04  0,9  4,4  20,2  
  02.02.2014  4,7    0,7    23:59    9,3    13:21  0,4    -2,1    23:59    3,7    10:06  75,5    49    14:54    97    09:32  1014,2    1008    00:00    1020    20:33  0,0  2,3  13,7  
  03.02.2014  2,9    -1,4    07:50    6,3    15:37  0,0    -2,3    00:05    2,5    10:41  82,1    68    16:00    98    09:38  1014,1    1008    20:33    1021    01:04  0,0  2,7  15,8  
  04.02.2014  5,8    3,6    19:51    9,3    13:55  0,6    -1,2    19:34    2,8    10:00  70,7    52    13:59    83    09:06  1009,0    1006    23:48    1012    11:03  0,0  3,9  21,2  
  05.02.2014  6,0    3,5    03:12    8,8    14:59  1,6    0,3    08:10    3,2    12:16  74,1    60    16:20    88    02:26  1000,3    997    14:32    1006    00:00  0,0  5,3  19,4  
  06.02.2014  8,4    5,9    08:20    11,7    13:08  2,1    -0,5    13:43    5,6    20:23  66,1    44    13:43    89    20:23  1002,9    995    23:02    1007    09:17  3,0  4,4  21,2  
  07.02.2014  9,2    3,4    23:51    13,3    10:37  2,8    0,3    13:00    5,4    16:42  66,3    43    12:08    92    17:26  996,1    989    09:03    1005    20:32  2,8  10,3  28,1  
  08.02.2014  7,1    3,4    00:28    9,7    12:53  1,9    -0,5    23:58    3,2    16:45  70,6    55    12:14    89    01:12  995,7    991    14:46    1004    00:00  0,9  8,4  16,2  
  09.02.2014  6,7    4,1    23:45    9,4    13:53  -2,0    -4,5    14:14    0,0    04:05  55,1    38    14:11    68    23:14  996,1    992    00:00    1001    23:59  0,0  4,5  19,1  
  10.02.2014  5,1    3,4    04:08    8,7    13:06  -1,1    -4,8    14:48    2,4    23:51  66,5    40    14:03    89    23:59  997,8    994    15:16    1001    00:00  0,9  2,8  11,5  
  11.02.2014  6,8    3,8    01:13    10,3    14:07  0,2    -4,0    15:57    3,8    03:01  65,8    39    14:23    93    02:48  1003,2    1000    00:00    1006    10:32  0,0  3,6  13,7  
  12.02.2014  6,1    2,3    08:05    9,4    14:03  -0,3    -4,0    15:59    2,8    02:04  66,3    40    15:59    90    09:09  1005,9    999    22:46    1010    08:06  0,9  4,4  20,2  
  13.02.2014  5,6    3,4    23:17    7,9    11:34  2,5    -0,8    03:29    5,3    14:42  81,0    62    03:09    97    14:42  997,9    992    14:11    1004    22:45  5,9  3,5  16,9  
  14.02.2014  5,5    2,4    07:19    8,8    14:27  2,1    -0,5    11:27    5,8    18:21  79,7    54    13:07    98    19:25  1004,6    996    22:30    1009    04:15  7,6  5,4  26,3  
  15.02.2014  10,6    7,3    00:01    13,9    13:58  2,6    -0,7    17:00    7,2    04:05  59,8    39    13:54    91    01:37  999,2    993    02:30    1006    23:59  0,0  5,0  23,0  
  16.02.2014  7,6    4,4    23:52    10,6    14:02  2,1    -0,1    00:00    4,2    04:44  69,0    52    13:59    84    04:44  1010,5    1005    00:29    1014    20:15  0,9  3,4  16,6  
  17.02.2014  6,9    3,1    03:33    12,5    13:40  1,7    0,0    23:06    3,8    11:13  71,0    48    15:30    88    04:08  1015,5    1013    00:32    1018    23:59  0,0  2,4  12,6  
  18.02.2014  6,2    3,9    06:47    8,9    16:15  1,5    0,5    16:15    3,0    23:59  73,1    56    16:15    87    06:03  1015,4    1013    13:44    1018    00:00  0,0  2,0  13,7  
  19.02.2014  8,4    6,5    00:21    11,1    14:47  4,6    2,8    16:57    6,8    10:27  78,2    61    16:55    91    07:43  1013,9    1012    02:15    1016    19:14  0,9  1,9  14,8  
  20.02.2014  8,9    5,6    06:45    13,0    13:17  4,6    2,1    11:12    7,9    23:20  75,4    49    12:55    91    23:59  1011,0    1005    22:28    1016    00:00  0,9  4,0  17,6  
  21.02.2014  7,3    3,7    23:39    9,5    01:05  4,1    0,5    22:15    8,7    01:05  81,0    63    16:57    96    08:15  1007,9    1005    04:00    1013    23:59  1,9  2,4  19,8  
  22.02.2014  5,5    2,6    05:15    9,0    14:16  1,6    0,0    22:55    4,4    13:12  77,2    63    15:29    87    02:31  1015,1    1012    02:28    1020    23:59  0,9  2,5  11,9  
  23.02.2014  6,5    1,7    05:47    12,0    14:48  0,7    -0,5    03:19    2,3    09:17  68,4    47    13:50    89    08:15  1021,2    1019    00:14    1023    08:59  0,0  3,8  15,8  
  24.02.2014  8,7    4,1    05:15    15,4    15:03  -0,2    -1,7    16:01    0,7    00:06  56,4    32    15:50    77    04:01  1015,3    1011    16:12    1020    00:00  0,0  4,0  19,8  
  25.02.2014  9,2    5,7    00:55    12,7    13:50  1,4    -0,9    00:55    3,1    22:40  59,0    47    11:42    73    07:47  1011,1    1009    14:12    1014    00:00  0,0  3,6  17,3  
  26.02.2014  8,7    3,4    23:58    12,1    13:38  3,9    0,9    23:59    7,8    10:13  73,4    55    15:49    92    08:35  1016,2    1011    01:57    1022    22:42  0,9  1,1  9,4  
  27.02.2014  5,5    1,1    06:20    11,1    13:36  2,0    -1,3    14:46    4,9    20:55  80,5    43    14:46    98    08:32  1016,3    1010    23:59    1022    00:12  5,9  3,0  17,3  
  28.02.2014  6,7    3,1    03:48    10,1    15:06  2,6    -0,3    15:39    5,5    10:28  77,0    51    15:17    98    09:06  1004,6    1000    20:39    1010    00:00  0,9  3,0  11,9  
 
  Gesamt  6,9  -1,4            15,4            1,6  -4,8            8,7            71,3  32            98            1007,6  989            1023            36,1  3,9  28,1  
 
  Mittelwert  6,9  3,5            10,4            1,6  -0,9            4,3            71,3  50,4            89,3            1007,6  1002,9            1012,4            1,3  3,9  17,3  
  Minimum  2,9  -1,4            6,3            -2,0  -4,8            0,0            55,1  32,0            68,0            995,7  989,0            1001,0            0,0  1,1  9,4  
  Maximum  10,6  7,3            15,4            4,6  2,8            8,7            82,1  68,0            98,0            1021,2  1019,0            1023,0            7,6  10,3  28,1  

  Heie Tage    Tmax >=30C     0  
  Sommertage    Tmax >=25C     0  
  Warme Tage    Tmax >=20C     0  
  Kalte Tage    Tmax  <10C     14  
  Frosttage    Tmin  <0C     1  
  Eistage    Tmax  <0C     0  
  Regentage > 0 mm    16  
  Regentage > 2 mm    5  
  Regentage > 10 mm    0  
  Regentage > 20 mm    0